createdAt,value
2023-01-09T00:38:49.861Z,85.74
2023-01-09T00:39:49.837Z,85.13
2023-01-09T00:40:49.807Z,86.44
2023-01-09T00:41:49.767Z,86.06
2023-01-09T00:42:49.740Z,86.17
2023-01-09T00:43:49.706Z,84.26
2023-01-09T00:44:49.670Z,85.89
2023-01-09T00:45:49.701Z,86.04
2023-01-09T00:46:49.624Z,87.83
2023-01-09T00:47:49.581Z,86.81
2023-01-09T00:48:49.558Z,85.49
2023-01-09T00:49:49.524Z,88.32
2023-01-09T00:50:49.489Z,85.38
2023-01-09T00:51:49.468Z,86.76
2023-01-09T00:52:49.437Z,86.66
2023-01-09T00:53:49.403Z,88.38
2023-01-09T00:54:49.374Z,86.78
2023-01-09T00:55:49.344Z,87.65
2023-01-09T00:56:49.331Z,85.95
2023-01-09T00:57:49.288Z,89.17
2023-01-09T00:58:49.252Z,89.33
2023-01-09T00:59:49.229Z,89.42
2023-01-09T01:00:49.335Z,85.09
2023-01-09T01:01:49.378Z,85.12
2023-01-09T01:02:49.190Z,91.08
2023-01-09T01:03:49.116Z,90.89
2023-01-09T01:04:49.090Z,89.39
2023-01-09T01:05:49.054Z,88.22
2023-01-09T01:06:49.021Z,88.89
2023-01-09T01:07:49.006Z,89.61
2023-01-09T01:08:48.956Z,89.44
2023-01-09T01:09:48.940Z,88.75
2023-01-09T01:10:48.906Z,90.98
2023-01-09T01:11:48.875Z,90.21
2023-01-09T01:12:48.847Z,90.39
2023-01-09T01:13:48.811Z,86.91
2023-01-09T01:14:48.787Z,86.31
2023-01-09T01:15:48.759Z,88.94
2023-01-09T01:16:48.763Z,88.91
2023-01-09T01:17:48.696Z,88.10
2023-01-09T01:18:48.677Z,88.84
2023-01-09T01:19:48.637Z,91.95
2023-01-09T01:20:48.609Z,88.93
2023-01-09T01:21:48.576Z,89.05
2023-01-09T01:22:48.548Z,88.43
2023-01-09T01:23:48.518Z,88.87
2023-01-09T01:24:48.498Z,87.52
2023-01-09T01:25:48.458Z,89.19
2023-01-09T01:26:48.437Z,91.65
2023-01-09T01:27:48.394Z,87.04
2023-01-09T01:28:48.363Z,88.02
2023-01-09T01:29:48.329Z,87.49
2023-01-09T01:30:48.321Z,87.13
2023-01-09T01:31:48.273Z,88.41
2023-01-09T01:32:48.248Z,85.22
2023-01-09T01:33:48.214Z,85.54
2023-01-09T01:34:48.175Z,85.95
2023-01-09T01:35:48.145Z,87.18
2023-01-09T01:36:48.124Z,86.56
2023-01-09T01:37:48.095Z,90.13
2023-01-09T01:38:48.075Z,87.20
2023-01-09T01:39:48.045Z,83.92
2023-01-09T01:40:48.009Z,89.64
2023-01-09T01:41:47.967Z,85.65
2023-01-09T01:42:47.972Z,86.03
2023-01-09T01:43:47.906Z,86.92
2023-01-09T01:44:47.881Z,88.50
2023-01-09T01:45:47.875Z,85.49
2023-01-09T01:46:47.817Z,88.09
2023-01-09T01:47:47.781Z,84.86
2023-01-09T01:48:47.757Z,83.51
2023-01-09T01:49:47.719Z,86.45
2023-01-09T01:50:47.684Z,85.63
2023-01-09T01:51:47.648Z,86.40
2023-01-09T01:52:47.619Z,81.55
2023-01-09T01:53:47.592Z,82.52
2023-01-09T01:54:47.574Z,82.79
2023-01-09T01:55:47.526Z,83.43
2023-01-09T01:56:47.498Z,84.78
2023-01-09T01:57:47.466Z,85.16
2023-01-09T01:58:47.435Z,85.80
2023-01-09T01:59:47.390Z,83.34
2023-01-09T02:00:47.362Z,86.87
2023-01-09T02:01:47.428Z,84.82
2023-01-09T02:02:47.307Z,86.42
2023-01-09T02:03:47.253Z,85.45
2023-01-09T02:04:47.215Z,84.72
2023-01-09T02:05:47.179Z,78.01
2023-01-09T02:06:47.138Z,80.21
2023-01-09T02:07:47.097Z,82.88
2023-01-09T02:08:47.074Z,84.42
2023-01-09T02:09:47.032Z,85.94
2023-01-09T02:10:46.995Z,84.80
2023-01-09T02:11:46.970Z,86.06
2023-01-09T02:12:46.934Z,84.72
2023-01-09T02:13:46.885Z,85.29
2023-01-09T02:14:46.862Z,85.03
2023-01-09T02:15:46.899Z,84.81
2023-01-09T02:16:46.794Z,85.08
2023-01-09T02:17:46.758Z,83.69
2023-01-09T02:18:46.713Z,84.82
2023-01-09T02:19:46.683Z,87.31
2023-01-09T02:20:46.655Z,85.89
2023-01-09T03:15:44.919Z,83.65
2023-01-09T03:16:44.901Z,83.71
2023-01-09T03:17:44.901Z,78.33
2023-01-09T03:18:44.831Z,83.86
2023-01-09T03:19:44.796Z,80.41
2023-01-09T03:20:44.763Z,80.94
2023-01-09T03:21:44.740Z,80.92
2023-01-09T03:22:44.702Z,81.22
2023-01-09T03:23:44.668Z,80.81
2023-01-09T03:24:44.641Z,78.25
2023-01-09T03:25:44.608Z,81.79
2023-01-09T03:26:44.566Z,83.73
2023-01-09T03:27:44.527Z,80.59
2023-01-09T03:28:44.488Z,78.17
2023-01-09T03:29:44.444Z,80.46
2023-01-09T03:30:44.409Z,79.35
2023-01-09T03:31:44.430Z,78.32
2023-01-09T03:32:44.339Z,79.36
2023-01-09T03:33:44.308Z,79.86
2023-01-09T03:34:44.269Z,79.76
2023-01-09T03:35:44.249Z,76.63
2023-01-09T03:36:44.213Z,79.31
2023-01-09T03:37:44.182Z,80.10
2023-01-09T03:38:44.130Z,80.24
2023-01-09T03:39:44.097Z,78.84
2023-01-09T03:40:44.061Z,79.06
2023-01-09T03:41:44.027Z,81.60
2023-01-09T03:42:43.995Z,77.32
2023-01-09T03:43:43.961Z,79.20
2023-01-09T03:44:43.933Z,76.61
2023-01-09T03:45:43.945Z,81.82
2023-01-09T03:46:43.855Z,76.27
2023-01-09T03:47:43.837Z,73.21
2023-01-09T03:48:43.803Z,71.52
2023-01-09T03:49:43.752Z,77.02
2023-01-09T03:50:43.724Z,78.35
2023-01-09T03:51:43.684Z,83.11
2023-01-09T03:52:43.658Z,77.61
2023-01-09T03:53:43.621Z,77.88
2023-01-09T03:54:43.599Z,78.22
2023-01-09T03:55:43.568Z,75.14
2023-01-09T03:56:43.527Z,78.13
2023-01-09T03:57:43.488Z,76.65
2023-01-09T03:58:43.457Z,75.39
2023-01-09T03:59:43.430Z,80.40
2023-01-09T04:00:43.399Z,79.01
2023-01-09T04:01:43.451Z,75.97
2023-01-09T04:02:43.339Z,75.98
2023-01-09T04:03:43.358Z,80.76
2023-01-09T04:04:43.284Z,77.90
2023-01-09T04:05:43.238Z,80.18
2023-01-09T04:06:43.206Z,78.89
2023-01-09T04:07:43.162Z,80.86
2023-01-09T04:08:43.130Z,80.14
2023-01-09T04:09:43.104Z,78.09
2023-01-09T04:10:43.086Z,80.35
2023-01-09T04:11:43.023Z,75.02
2023-01-09T04:12:43.005Z,80.97
2023-01-09T04:13:42.954Z,79.67
2023-01-09T07:23:35.529Z,225.65
2023-01-09T07:24:35.437Z,223.19
2023-01-09T07:25:35.382Z,233.59
2023-01-09T07:26:35.317Z,234.94
2023-01-09T07:27:35.276Z,226.94
2023-01-09T07:28:35.202Z,226.35
2023-01-09T07:29:35.314Z,228.38
2023-01-09T07:30:35.068Z,231.88
2023-01-09T07:31:35.038Z,236.54
2023-01-09T07:32:34.956Z,237.51
2023-01-09T07:33:34.917Z,241.18
2023-01-09T07:34:34.836Z,245.12
2023-01-09T07:35:34.783Z,242.77
2023-01-09T07:36:34.700Z,246.46
2023-01-09T07:37:34.641Z,247.48
2023-01-09T07:38:36.733Z,250.00
2023-01-09T07:39:34.521Z,249.67
2023-01-09T07:40:34.454Z,241.29
2023-01-09T07:41:34.389Z,245.74
2023-01-09T07:42:34.332Z,250.00
2023-01-09T07:43:34.291Z,244.31
2023-01-09T07:44:34.225Z,245.96
2023-01-09T07:45:34.160Z,223.49
2023-01-09T07:47:34.045Z,39.63
2023-01-09T07:48:34.006Z,14.03
2023-01-09T07:49:33.949Z,0.00
2023-01-09T07:50:33.911Z,0.00
2023-01-09T07:51:33.861Z,0.00
2023-01-09T07:52:33.823Z,0.00
2023-01-09T07:53:33.784Z,0.00
2023-01-09T07:54:33.751Z,0.00
2023-01-09T07:55:33.728Z,7.79
2023-01-09T07:56:33.710Z,0.00
2023-01-09T07:57:33.681Z,6.74
2023-01-09T07:58:33.648Z,0.00
2023-01-09T07:59:33.646Z,13.21
2023-01-09T08:00:33.662Z,39.54
2023-01-09T08:01:33.670Z,48.81
2023-01-09T08:02:33.706Z,56.86
2023-01-09T08:03:33.585Z,63.27
2023-01-09T08:04:33.545Z,63.19
2023-01-09T08:05:33.539Z,65.78
2023-01-09T08:06:33.486Z,79.36
2023-01-09T08:07:33.467Z,86.87
2023-01-09T08:08:33.435Z,88.40
2023-01-09T08:09:33.422Z,95.14
2023-01-09T08:10:33.401Z,98.34
2023-01-09T08:11:33.372Z,103.04
2023-01-09T08:12:33.323Z,113.59
2023-01-09T08:13:33.311Z,110.00
2023-01-09T08:14:33.242Z,112.57
2023-01-09T08:15:33.247Z,119.58
2023-01-09T08:16:33.171Z,124.13
2023-01-09T08:17:33.127Z,128.37
2023-01-09T08:18:33.119Z,138.42
2023-01-09T08:19:33.040Z,139.37
2023-01-09T08:20:32.993Z,144.57
2023-01-09T08:21:32.943Z,144.70
2023-01-09T11:56:25.005Z,203.72
2023-01-09T12:27:23.857Z,226.91
2023-01-09T12:28:23.829Z,220.48
2023-01-09T12:29:23.811Z,223.15
2023-01-09T12:30:23.742Z,217.74
2023-01-09T12:31:23.735Z,224.00
2023-01-09T12:32:23.676Z,220.87
2023-01-09T12:33:23.637Z,215.94
2023-01-09T12:34:23.613Z,212.59
2023-01-09T12:35:23.571Z,212.74
2023-01-09T12:36:23.545Z,216.63
2023-01-09T12:37:23.490Z,214.77
2023-01-09T12:38:23.458Z,213.86
2023-01-09T12:39:23.432Z,207.70
2023-01-09T12:40:23.404Z,208.83
2023-01-09T12:41:23.365Z,211.77
2023-01-09T12:42:23.338Z,215.09
2023-01-09T12:43:23.302Z,208.96
2023-01-09T12:44:34.652Z,207.08
2023-01-09T12:46:23.207Z,205.57
2023-01-09T12:47:23.161Z,208.09
2023-01-09T12:48:23.125Z,205.50
2023-01-09T12:49:23.103Z,202.93
2023-01-09T12:50:23.060Z,200.42
2023-01-09T12:51:23.024Z,199.85
2023-01-09T12:52:22.997Z,202.63
2023-01-09T12:53:22.967Z,204.82
2023-01-09T12:54:22.942Z,200.89
2023-01-09T14:24:20.070Z,153.81
2023-01-09T14:35:19.680Z,153.57
2023-01-09T15:37:17.595Z,149.77
2023-01-09T15:38:17.556Z,146.74
2023-01-09T15:39:17.529Z,141.30
2023-01-09T15:40:17.504Z,146.56
2023-01-09T15:41:17.479Z,143.34
2023-01-09T15:42:17.470Z,146.49
2023-01-09T15:43:17.436Z,146.37
2023-01-09T15:44:17.405Z,144.28
2023-01-09T15:45:17.375Z,144.75
2023-01-09T15:46:17.341Z,142.15
2023-01-09T15:47:17.311Z,146.40
2023-01-09T15:48:17.283Z,145.95
2023-01-09T15:49:17.245Z,142.79
2023-01-09T15:50:17.220Z,139.80
2023-01-09T15:51:17.188Z,141.66
2023-01-09T15:52:17.155Z,144.29
2023-01-09T15:53:17.125Z,144.41
2023-01-09T15:54:17.094Z,144.50
2023-01-09T15:55:17.059Z,140.34
2023-01-09T15:56:17.055Z,139.50
2023-01-09T15:57:17.005Z,144.43
2023-01-09T15:58:16.976Z,146.99
2023-01-09T15:59:16.951Z,146.59
2023-01-09T16:00:16.896Z,142.63
2023-01-09T16:01:16.921Z,137.85
2023-01-09T16:02:16.855Z,138.08
2023-01-09T16:03:16.820Z,139.06
2023-01-09T16:04:16.765Z,140.73
2023-01-09T16:05:16.756Z,139.88
2023-01-09T16:06:16.720Z,139.19
2023-01-09T16:07:16.687Z,141.27
2023-01-09T16:08:16.642Z,140.66
2023-01-09T16:09:16.701Z,142.45
2023-01-09T16:10:16.571Z,144.17
2023-01-09T16:11:16.540Z,141.15
2023-01-09T16:12:16.506Z,140.16
2023-01-09T16:13:16.475Z,141.12
2023-01-09T16:14:16.440Z,144.82
2023-01-09T16:15:16.410Z,143.48
2023-01-09T16:16:16.393Z,141.42
2023-01-09T16:17:16.361Z,136.41
2023-01-09T16:18:16.341Z,139.65
2023-01-09T16:19:16.284Z,139.97
2023-01-09T16:20:16.267Z,141.08
2023-01-09T16:21:16.211Z,143.36
2023-01-09T16:22:16.174Z,139.40
2023-01-09T16:23:16.149Z,137.83
2023-01-09T16:24:16.104Z,139.80
2023-01-09T16:25:16.074Z,141.66
2023-01-09T16:26:16.028Z,144.02
2023-01-09T16:27:15.997Z,140.63
2023-01-09T16:28:15.965Z,143.84
2023-01-09T16:29:15.927Z,141.29
2023-01-09T16:30:15.891Z,142.37
2023-01-09T16:31:15.849Z,142.63
2023-01-09T16:32:15.812Z,146.35
2023-01-09T16:33:15.781Z,144.21
2023-01-09T16:34:15.740Z,137.94
2023-01-09T16:35:15.708Z,140.73
2023-01-09T16:36:15.665Z,143.97
2023-01-09T16:37:15.653Z,143.08
2023-01-09T16:38:15.600Z,140.46
2023-01-09T16:39:15.569Z,139.59
2023-01-09T16:40:15.525Z,140.26
2023-01-09T16:41:15.491Z,140.60
2023-01-09T16:42:15.480Z,140.97
2023-01-09T16:43:15.441Z,143.54
2023-01-09T16:44:15.405Z,139.80
2023-01-09T16:45:15.373Z,136.60
2023-01-09T16:46:15.382Z,137.10
2023-01-09T16:47:15.297Z,137.35
2023-01-09T16:48:15.253Z,138.24
2023-01-09T16:49:15.223Z,138.45
2023-01-09T16:50:15.198Z,137.29
2023-01-09T16:51:15.161Z,137.79
2023-01-09T16:52:15.914Z,139.10
2023-01-09T16:53:15.080Z,139.53
2023-01-09T16:54:15.078Z,142.33
2023-01-09T16:55:15.015Z,140.47
2023-01-09T16:56:14.996Z,137.94
2023-01-09T16:57:14.952Z,139.26
2023-01-09T16:58:16.992Z,140.92
2023-01-09T16:59:14.903Z,145.41
2023-01-09T17:00:14.855Z,142.20
2023-01-09T17:01:14.950Z,139.68
2023-01-09T17:02:14.825Z,137.03
2023-01-09T17:03:14.768Z,139.06
2023-01-09T17:04:14.749Z,140.13
2023-01-09T17:05:14.711Z,143.05
2023-01-09T17:06:14.675Z,139.95
2023-01-09T17:07:14.647Z,135.11
2023-01-09T17:08:14.621Z,136.37
2023-01-09T17:09:14.601Z,141.12
2023-01-09T17:10:14.559Z,140.14
2023-01-09T17:11:14.527Z,138.20
2023-01-09T17:12:14.496Z,140.35
2023-01-09T17:13:14.463Z,137.74
2023-01-09T17:14:14.434Z,141.47
2023-01-09T17:15:14.398Z,139.79
2023-01-09T17:16:14.431Z,139.50
2023-01-09T17:17:14.362Z,140.82
2023-01-09T17:18:14.306Z,137.94
2023-01-09T17:19:14.278Z,138.38
2023-01-09T17:20:14.241Z,137.80
2023-01-09T17:21:14.232Z,142.04
2023-01-09T17:22:14.212Z,143.22
2023-01-09T17:23:14.150Z,139.02
2023-01-09T17:24:14.185Z,134.86
2023-01-09T17:25:14.101Z,137.88
2023-01-09T17:26:14.065Z,138.16
2023-01-09T17:27:14.038Z,141.66
2023-01-09T17:28:14.005Z,140.29
2023-01-09T17:29:13.970Z,138.62
2023-01-09T17:30:18.944Z,137.09
2023-01-09T17:31:14.986Z,137.27
2023-01-09T17:32:13.930Z,137.99
2023-01-09T17:33:13.856Z,138.53
2023-01-09T17:34:13.823Z,140.11
2023-01-09T17:35:13.787Z,139.48
2023-01-09T17:36:13.750Z,138.41
2023-01-09T17:37:13.754Z,139.77
2023-01-09T17:38:13.704Z,141.04
2023-01-09T17:39:13.651Z,137.72
2023-01-09T17:40:13.630Z,137.36
2023-01-09T17:41:13.587Z,138.69
2023-01-09T17:42:13.547Z,140.18
2023-01-09T17:43:13.513Z,140.46
2023-01-09T17:44:13.485Z,138.91
2023-01-09T17:45:13.462Z,136.96
2023-01-09T17:46:13.474Z,135.90
2023-01-09T17:47:13.391Z,139.90
2023-01-09T17:48:13.359Z,140.08
2023-01-09T17:49:13.334Z,138.53
2023-01-09T17:50:13.295Z,135.27
2023-01-09T17:51:13.269Z,133.90
2023-01-09T17:52:13.229Z,134.11
2023-01-09T17:53:13.204Z,136.47
2023-01-09T17:54:13.176Z,138.50
2023-01-09T17:55:13.151Z,138.14
2023-01-09T17:56:13.111Z,136.82
2023-01-09T17:57:13.081Z,131.95
2023-01-09T17:58:13.040Z,134.92
2023-01-09T17:59:13.018Z,132.78
2023-01-09T18:00:12.979Z,137.87
2023-01-09T18:01:12.982Z,135.70
2023-01-09T18:02:12.962Z,129.48
2023-01-09T18:03:12.885Z,133.38
2023-01-09T18:04:12.824Z,132.12
2023-01-09T18:05:12.800Z,133.98
2023-01-09T18:06:12.761Z,136.94
2023-01-09T18:07:12.720Z,132.06
2023-01-09T18:08:12.691Z,129.02
2023-01-09T18:09:12.647Z,133.56
2023-01-09T18:10:12.625Z,136.06
2023-01-09T18:11:12.585Z,134.90
2023-01-09T18:12:12.571Z,134.99
2023-01-09T18:13:12.530Z,131.35
2023-01-09T18:14:13.845Z,125.58
2023-01-09T18:15:12.461Z,132.40
2023-01-09T18:16:12.472Z,134.68
2023-01-09T18:17:12.404Z,136.31
2023-01-09T18:18:12.359Z,130.37
2023-01-09T18:19:12.318Z,128.75
2023-01-09T18:20:12.280Z,128.12
2023-01-09T18:21:12.247Z,132.21
2023-01-09T18:22:12.214Z,135.72
2023-01-09T18:23:12.177Z,134.28
2023-01-09T18:24:12.143Z,130.48
2023-01-09T18:25:12.155Z,127.21
2023-01-09T18:26:12.087Z,128.99
2023-01-09T18:27:12.025Z,131.63
2023-01-09T18:28:11.999Z,134.83
2023-01-09T18:29:11.963Z,126.68
2023-01-09T18:30:11.932Z,121.25
2023-01-09T18:31:11.945Z,123.59
2023-01-09T18:32:11.859Z,125.57
2023-01-09T18:33:11.832Z,130.08
2023-01-09T18:34:11.787Z,131.50
2023-01-09T18:35:11.753Z,127.43
2023-01-09T18:36:11.731Z,122.56
2023-01-09T18:37:11.765Z,125.78
2023-01-09T18:38:11.681Z,126.62
2023-01-09T18:39:11.634Z,126.90
2023-01-09T18:40:11.597Z,127.29
2023-01-09T18:41:11.566Z,119.39
2023-01-09T18:42:11.542Z,122.58
2023-01-09T18:43:11.556Z,127.69
2023-01-09T18:44:11.466Z,129.11
2023-01-09T18:45:11.447Z,129.82
2023-01-09T18:46:11.477Z,126.82
2023-01-09T18:47:11.360Z,121.83
2023-01-09T18:48:11.312Z,119.53
2023-01-09T18:49:11.307Z,125.08
2023-01-09T18:50:11.241Z,128.14
2023-01-09T18:51:11.211Z,128.56
2023-01-09T18:52:11.181Z,119.24
2023-01-09T18:53:11.145Z,120.19
2023-01-09T18:54:11.120Z,120.74
2023-01-09T18:55:11.091Z,128.08
2023-01-09T18:56:11.042Z,128.15
2023-01-09T18:57:11.007Z,123.71
2023-01-09T18:58:10.976Z,117.60
2023-01-09T18:59:10.966Z,120.05
2023-01-09T19:00:10.916Z,120.14
2023-01-09T19:01:10.913Z,125.29
2023-01-09T19:02:10.842Z,122.85
2023-01-09T19:03:11.810Z,117.55
2023-01-09T19:04:10.888Z,117.44
2023-01-09T19:05:10.741Z,121.64
2023-01-09T19:06:10.757Z,124.59
2023-01-09T19:07:10.677Z,127.99
2023-01-09T19:08:10.630Z,120.49
2023-01-09T19:09:10.593Z,122.81
2023-01-09T19:10:10.570Z,122.34
2023-01-09T19:11:10.535Z,124.79
2023-01-09T19:12:10.512Z,124.08
2023-01-09T19:13:10.455Z,121.86
2023-01-09T19:14:10.448Z,119.60
2023-01-09T19:15:10.379Z,116.16
2023-01-09T19:16:10.401Z,118.13
2023-01-09T19:17:10.319Z,125.51
2023-01-09T19:18:10.283Z,128.48
2023-01-09T19:19:10.252Z,123.99
2023-01-09T19:20:10.230Z,115.20
2023-01-09T19:21:10.182Z,122.17
2023-01-09T19:22:10.163Z,123.95
2023-01-09T19:23:10.145Z,125.80
2023-01-09T19:24:10.117Z,126.43
2023-01-09T19:25:10.060Z,122.34
2023-01-09T19:26:10.038Z,113.85
2023-01-09T19:27:10.004Z,120.67
2023-01-09T19:28:09.976Z,125.13
2023-01-09T19:29:09.943Z,125.39
2023-01-09T19:30:09.916Z,125.17
2023-01-09T19:31:09.944Z,117.97
2023-01-09T19:32:09.851Z,120.89
2023-01-09T19:33:09.810Z,123.90
2023-01-09T19:34:09.766Z,125.63
2023-01-09T19:35:09.744Z,126.38
2023-01-09T19:36:09.708Z,121.25
2023-01-09T19:37:09.772Z,111.32
2023-01-09T19:38:09.634Z,119.36
2023-01-09T19:39:09.597Z,123.11
2023-01-09T19:40:09.553Z,124.45
2023-01-09T19:41:09.500Z,123.12
2023-01-09T19:42:09.470Z,117.86
2023-01-09T19:43:09.443Z,119.87
2023-01-09T19:44:09.403Z,122.12
2023-01-09T19:45:09.356Z,124.46
2023-01-09T19:46:09.416Z,127.76
2023-01-09T19:47:09.277Z,123.16
2023-01-09T19:48:09.242Z,116.56
2023-01-09T19:49:09.208Z,118.50
2023-01-09T19:50:09.173Z,119.17
2023-01-09T19:51:09.137Z,124.29
2023-01-09T19:52:09.105Z,122.88
2023-01-09T19:53:09.061Z,117.67
2023-01-09T19:54:09.028Z,117.16
2023-01-09T19:55:08.987Z,118.64
2023-01-09T19:56:08.944Z,124.58
2023-01-09T19:57:08.909Z,125.74
2023-01-09T19:58:08.880Z,123.20
2023-01-09T19:59:08.850Z,115.94
2023-01-09T20:00:08.812Z,115.93
2023-01-09T20:01:08.799Z,116.32
2023-01-09T20:02:08.743Z,117.58
2023-01-09T20:03:08.697Z,120.36
2023-01-09T20:04:08.667Z,120.68
2023-01-09T20:05:08.627Z,116.04
2023-01-09T20:06:08.614Z,123.40
2023-01-09T20:07:08.562Z,122.23
2023-01-09T20:08:08.535Z,124.89
2023-01-09T20:09:08.494Z,118.47
2023-01-09T20:10:08.477Z,117.11
2023-01-09T20:11:08.441Z,118.13
2023-01-09T20:12:08.426Z,118.08
2023-01-09T20:13:08.389Z,119.37
2023-01-09T20:14:08.367Z,126.07
2023-01-09T20:15:08.321Z,116.86
2023-01-09T20:16:08.338Z,112.70
2023-01-09T20:17:08.245Z,116.45
2023-01-09T20:18:08.220Z,116.74
2023-01-09T20:19:08.188Z,125.06
2023-01-09T20:20:08.150Z,120.03
2023-01-09T20:21:08.110Z,116.47
2023-01-09T20:22:08.096Z,113.62
2023-01-09T20:23:08.047Z,113.08
2023-01-09T20:24:08.008Z,122.98
2023-01-09T20:25:07.981Z,122.48
2023-01-09T20:26:07.942Z,119.90
2023-01-09T20:27:07.916Z,110.93
2023-01-09T20:28:07.882Z,116.48
2023-01-09T20:29:07.836Z,119.35
2023-01-09T20:30:07.803Z,123.48
2023-01-09T20:31:07.765Z,122.03
2023-01-09T20:32:07.780Z,120.06
2023-01-09T20:33:07.711Z,106.51
2023-01-09T20:34:07.678Z,112.13
2023-01-09T20:35:07.637Z,113.69
2023-01-09T20:36:07.607Z,123.66
2023-01-09T20:37:07.615Z,116.54
2023-01-09T20:38:07.547Z,111.67
2023-01-09T20:39:07.499Z,109.53
2023-01-09T20:40:07.463Z,117.07
2023-01-09T20:41:07.419Z,117.79
2023-01-09T20:42:07.389Z,119.33
2023-01-09T20:43:07.350Z,111.02
2023-01-09T20:44:07.363Z,107.25
2023-01-09T20:45:07.284Z,110.57
2023-01-09T20:46:07.272Z,115.31
2023-01-09T20:47:07.205Z,120.26
2023-01-09T20:48:07.186Z,117.67
2023-01-09T20:49:07.143Z,108.46
2023-01-09T20:50:07.102Z,106.97
2023-01-09T20:51:07.077Z,113.89
2023-01-09T20:52:07.036Z,114.08
2023-01-09T20:53:07.953Z,115.49
2023-01-09T20:54:06.971Z,115.86
2023-01-09T20:55:06.947Z,110.07
2023-01-09T20:56:06.919Z,108.71
2023-01-09T20:57:06.879Z,110.30
2023-01-09T20:58:06.855Z,115.10
2023-01-09T20:59:06.820Z,120.44
2023-01-09T21:00:06.771Z,112.32
2023-01-09T21:01:06.774Z,108.19
2023-01-09T21:02:06.713Z,112.18
2023-01-09T21:03:06.678Z,116.03
2023-01-09T21:04:06.675Z,121.69
2023-01-09T21:05:06.622Z,117.52
2023-01-09T21:06:06.672Z,106.51
2023-01-09T21:07:06.545Z,105.75
2023-01-09T21:08:06.518Z,113.54
2023-01-09T21:09:06.523Z,118.40
2023-01-09T21:10:06.462Z,118.27
2023-01-09T21:11:06.442Z,108.84
2023-01-09T21:12:06.410Z,103.78
2023-01-09T21:13:06.377Z,104.13
2023-01-09T21:14:06.349Z,105.74
2023-01-09T21:15:06.332Z,109.08
2023-01-09T21:16:08.900Z,110.05
2023-01-09T21:17:06.253Z,110.73
2023-01-09T21:18:06.218Z,109.19
2023-01-09T21:19:06.180Z,114.77
2023-01-09T21:20:06.155Z,115.68
2023-01-09T21:21:06.107Z,121.39
2023-01-09T21:22:06.079Z,111.10
2023-01-09T21:23:06.033Z,109.15
2023-01-09T21:24:06.026Z,114.06
2023-01-09T21:25:05.974Z,117.69
2023-01-09T21:26:05.949Z,117.34
2023-01-09T21:27:05.916Z,116.39
2023-01-09T21:28:05.883Z,109.10
2023-01-09T21:29:05.847Z,104.36
2023-01-09T21:30:05.810Z,114.29
2023-01-09T21:31:05.770Z,107.91
2023-01-09T21:32:05.744Z,119.63
2023-01-09T21:33:05.723Z,112.10
2023-01-09T21:34:05.730Z,100.04
2023-01-09T21:35:05.641Z,109.25
2023-01-09T21:36:05.610Z,113.51
2023-01-09T21:37:05.629Z,117.74
2023-01-09T21:38:05.553Z,117.26
2023-01-09T21:39:08.161Z,109.34
2023-01-09T21:40:05.478Z,108.92
2023-01-09T21:41:05.551Z,109.75
2023-01-09T21:42:05.401Z,113.04
2023-01-09T21:43:05.381Z,118.14
2023-01-09T21:44:05.338Z,115.31
2023-01-09T21:45:05.310Z,106.07
2023-01-09T21:46:05.315Z,109.00
2023-01-09T21:47:05.234Z,113.58
2023-01-09T21:48:05.212Z,116.49
2023-01-09T21:49:05.175Z,120.32
2023-01-09T21:50:05.138Z,109.18
2023-01-09T21:51:05.108Z,101.68
2023-01-09T21:52:05.070Z,106.16
2023-01-09T21:53:05.043Z,114.92
2023-01-09T21:54:05.598Z,116.69
2023-01-09T21:55:04.979Z,116.54
2023-01-09T21:56:04.959Z,104.62
2023-01-09T21:57:04.921Z,109.46
2023-01-09T21:58:04.891Z,111.68
2023-01-09T21:59:04.858Z,117.30
2023-01-09T22:00:04.832Z,121.38
2023-01-09T22:01:04.902Z,111.51
2023-01-09T22:02:04.758Z,108.34
2023-01-09T22:03:04.729Z,105.29
2023-01-09T22:04:04.749Z,116.58
2023-01-09T22:05:04.677Z,117.07
2023-01-09T22:06:04.641Z,118.03
2023-01-09T22:07:04.614Z,108.56
2023-01-09T22:08:04.588Z,99.14
2023-01-09T22:09:04.566Z,111.56
2023-01-09T22:10:04.522Z,114.73
2023-01-09T22:11:04.493Z,123.47
2023-01-09T22:12:04.460Z,113.78
2023-01-09T22:13:04.418Z,108.24
2023-01-09T22:14:04.382Z,108.36
2023-01-09T22:15:04.348Z,115.49
2023-01-09T22:16:04.353Z,119.50
2023-01-09T22:17:04.285Z,120.28
2023-01-09T22:18:04.250Z,110.77
2023-01-09T22:19:04.223Z,106.21
2023-01-09T22:20:04.199Z,111.32
2023-01-09T22:21:04.156Z,116.41
2023-01-09T22:22:04.133Z,116.99
2023-01-09T22:23:04.099Z,113.81
2023-01-09T22:24:04.064Z,107.55
2023-01-09T22:25:04.041Z,102.93
2023-01-09T22:26:04.006Z,115.04
2023-01-09T22:27:03.987Z,116.98
2023-01-09T22:28:03.938Z,121.50
2023-01-09T22:29:03.916Z,112.67
2023-01-09T22:30:03.886Z,100.51
2023-01-09T22:31:03.853Z,110.58
2023-01-09T22:32:03.915Z,114.80
2023-01-09T22:33:03.801Z,119.32
2023-01-09T22:34:03.775Z,120.03
2023-01-09T22:35:03.762Z,111.46
2023-01-09T22:36:03.718Z,109.16
2023-01-09T22:37:03.762Z,112.09
2023-01-09T22:38:03.661Z,114.41
2023-01-09T22:39:03.630Z,120.49
2023-01-09T22:40:03.634Z,114.22
2023-01-09T22:41:03.584Z,110.34
2023-01-09T22:42:03.547Z,110.29
2023-01-09T22:43:03.511Z,115.36
2023-01-09T22:44:03.489Z,121.27
2023-01-09T22:45:03.461Z,117.20
2023-01-09T22:46:03.543Z,112.55
2023-01-09T22:47:03.403Z,101.13
2023-01-09T22:48:03.372Z,106.94
2023-01-09T22:49:03.352Z,115.95
2023-01-09T22:50:03.320Z,119.92
2023-01-09T22:51:03.293Z,117.93
2023-01-09T22:52:03.269Z,111.24
2023-01-09T22:53:03.245Z,110.48
2023-01-09T22:54:03.219Z,108.85
2023-01-09T22:55:03.194Z,113.18
2023-01-09T22:56:03.169Z,120.46
2023-01-09T22:57:03.133Z,108.51
2023-01-09T22:58:03.098Z,100.23
2023-01-09T22:59:03.091Z,112.69
2023-01-09T23:00:03.044Z,112.30
2023-01-09T23:01:03.009Z,115.20
2023-01-09T23:02:03.109Z,116.41
2023-01-09T23:03:03.040Z,109.92
2023-01-09T23:04:02.924Z,114.09
2023-01-09T23:05:02.911Z,113.53
2023-01-09T23:06:02.881Z,115.80
2023-01-09T23:07:02.851Z,118.69
2023-01-09T23:08:02.818Z,118.72
2023-01-09T23:09:02.795Z,107.06
2023-01-09T23:10:02.791Z,105.12
2023-01-09T23:11:02.744Z,107.23
2023-01-09T23:12:02.711Z,115.77
2023-01-09T23:13:02.679Z,119.36
2023-01-09T23:14:02.633Z,108.68
2023-01-09T23:15:02.608Z,101.83
2023-01-09T23:16:02.588Z,111.89
2023-01-09T23:17:02.574Z,113.73
2023-01-09T23:18:02.523Z,119.40
2023-01-09T23:19:02.496Z,112.28
2023-01-09T23:20:02.449Z,106.21
2023-01-09T23:21:02.420Z,100.16
2023-01-09T23:22:02.408Z,109.21
2023-01-09T23:23:02.360Z,112.57
2023-01-09T23:24:02.360Z,119.22
2023-01-09T23:25:02.303Z,108.40
2023-01-09T23:26:02.289Z,98.30
2023-01-09T23:27:02.241Z,100.25
2023-01-09T23:28:02.194Z,110.17
2023-01-09T23:29:02.150Z,115.13
2023-01-09T23:30:02.116Z,118.45
2023-01-09T23:31:02.095Z,111.19
2023-01-09T23:32:02.119Z,107.98
2023-01-09T23:33:02.036Z,108.83
2023-01-09T23:34:02.009Z,108.32
2023-01-09T23:35:01.959Z,117.99
2023-01-09T23:36:01.916Z,107.46
2023-01-09T23:37:01.921Z,100.26
2023-01-09T23:38:01.849Z,98.67
2023-01-09T23:39:01.815Z,98.98
2023-01-09T23:40:01.795Z,106.79
2023-01-09T23:41:01.750Z,110.90
2023-01-09T23:42:01.740Z,101.47
2023-01-09T23:43:01.688Z,97.27
2023-01-09T23:44:01.647Z,103.03
2023-01-09T23:45:01.620Z,109.90
2023-01-09T23:46:01.641Z,116.29
2023-01-09T23:47:01.558Z,111.80
2023-01-09T23:48:01.519Z,97.77
2023-01-09T23:49:01.479Z,97.00
2023-01-09T23:50:01.461Z,103.28
2023-01-09T23:51:01.407Z,116.27
2023-01-09T23:52:01.371Z,115.17
2023-01-09T23:53:01.333Z,107.38
2023-01-09T23:54:01.304Z,95.22
2023-01-09T23:55:01.267Z,100.13
2023-01-09T23:56:01.223Z,100.49
2023-01-09T23:57:01.188Z,112.22
2023-01-09T23:58:01.156Z,110.96
2023-01-09T23:59:01.149Z,101.26
